createdAt,value
2022-09-15T00:01:57.875Z,1005.38
2022-09-15T00:06:50.536Z,1005.52
2022-09-15T00:11:43.312Z,1005.57
2022-09-15T00:16:36.297Z,1005.42
2022-09-15T00:21:29.026Z,1005.46
2022-09-15T00:26:21.730Z,1005.47
2022-09-15T00:31:14.473Z,1005.4
2022-09-15T00:36:07.133Z,1005.49
2022-09-15T00:40:59.853Z,1005.54
2022-09-15T00:45:52.408Z,1005.58
2022-09-15T00:50:44.946Z,1005.6
2022-09-15T00:55:37.556Z,1005.81
2022-09-15T01:00:30.292Z,1005.74
2022-09-15T01:05:22.788Z,1005.7
2022-09-15T01:10:15.425Z,1005.74
2022-09-15T01:15:08.115Z,1005.81
2022-09-15T01:20:00.623Z,1005.84
2022-09-15T01:24:53.153Z,1005.81
2022-09-15T01:29:45.928Z,1005.78
2022-09-15T01:34:38.515Z,1005.78
2022-09-15T01:39:31.097Z,1005.75
2022-09-15T01:44:23.571Z,1005.75
2022-09-15T01:49:16.458Z,1005.66
2022-09-15T01:54:09.359Z,1005.68
2022-09-15T01:59:02.091Z,1005.56
2022-09-15T02:03:54.706Z,1005.46
2022-09-15T02:08:47.459Z,1005.58
2022-09-15T02:13:40.170Z,1005.58
2022-09-15T02:18:32.827Z,1005.59
2022-09-15T02:23:25.560Z,1005.69
2022-09-15T02:28:18.138Z,1005.66
2022-09-15T02:33:10.946Z,1005.65
2022-09-15T02:38:03.852Z,1005.62
2022-09-15T02:42:56.550Z,1005.62
2022-09-15T02:47:49.169Z,1005.59
2022-09-15T02:52:42.029Z,1005.55
2022-09-15T02:57:34.521Z,1005.59
2022-09-15T03:02:27.173Z,1005.62
2022-09-15T03:07:20.015Z,1005.58
2022-09-15T03:12:06.851Z,1005.56
2022-09-15T03:17:00.401Z,1005.54
2022-09-15T03:21:54.167Z,1005.52
2022-09-15T03:26:46.894Z,1005.51
2022-09-15T03:31:39.712Z,1005.57
2022-09-15T03:36:32.310Z,1005.58
2022-09-15T03:41:25.068Z,1005.6
2022-09-15T03:46:17.790Z,1005.66
2022-09-15T03:51:10.536Z,1005.68
2022-09-15T03:56:03.230Z,1005.56
2022-09-15T04:00:56.024Z,1005.57
2022-09-15T04:05:48.396Z,1005.6
2022-09-15T04:10:41.149Z,1005.57
2022-09-15T04:15:33.901Z,1005.56
2022-09-15T04:20:26.577Z,1005.62
2022-09-15T04:25:19.300Z,1005.63
2022-09-15T04:30:12.133Z,1005.71
2022-09-15T04:35:04.860Z,1005.77
2022-09-15T04:39:57.552Z,1005.78
2022-09-15T04:44:50.260Z,1005.78
2022-09-15T04:49:42.642Z,1005.85
2022-09-15T04:54:35.251Z,1005.93
2022-09-15T04:59:27.880Z,1005.92
2022-09-15T05:04:20.741Z,1006.05
2022-09-15T05:09:13.551Z,1005.99
2022-09-15T05:14:06.339Z,1006
2022-09-15T05:18:59.149Z,1005.99
2022-09-15T05:23:52.058Z,1006.01
2022-09-15T05:28:44.492Z,1006.08
2022-09-15T05:33:36.750Z,1006
2022-09-15T05:38:29.506Z,1005.99
2022-09-15T05:43:22.071Z,1006.01
2022-09-15T05:48:14.919Z,1005.97
2022-09-15T05:53:07.657Z,1006.01
2022-09-15T05:58:00.478Z,1006.07
2022-09-15T06:02:53.082Z,1006.01
2022-09-15T06:07:45.648Z,1006.02
2022-09-15T06:12:38.390Z,1006.08
2022-09-15T06:17:30.940Z,1006.12
2022-09-15T06:22:23.594Z,1006.25
2022-09-15T06:27:16.282Z,1006.2
2022-09-15T06:32:09.053Z,1006.25
2022-09-15T06:37:01.556Z,1006.33
2022-09-15T06:42:02.116Z,1006.36
2022-09-15T06:46:47.013Z,1006.41
2022-09-15T06:51:39.709Z,1006.48
2022-09-15T06:56:37.174Z,1006.44
2022-09-15T07:01:25.227Z,1006.47
2022-09-15T07:06:17.529Z,1006.45
2022-09-15T07:11:10.206Z,1006.5
2022-09-15T07:16:02.998Z,1006.5
2022-09-15T07:20:55.327Z,1006.57
2022-09-15T07:25:47.647Z,1006.71
2022-09-15T07:30:39.867Z,1006.77
2022-09-15T07:35:32.511Z,1006.85
2022-09-15T07:40:26.233Z,1006.99
2022-09-15T07:45:18.834Z,1007.09
2022-09-15T07:50:11.589Z,1007.14
2022-09-15T07:55:03.793Z,1007.12
2022-09-15T07:59:51.388Z,1007.15
2022-09-15T08:04:44.060Z,1007.2
2022-09-15T08:09:37.856Z,1007.28
2022-09-15T08:14:30.611Z,1007.28
2022-09-15T08:19:23.182Z,1007.3
2022-09-15T08:24:15.851Z,1007.36
2022-09-15T08:29:08.359Z,1007.22
2022-09-15T08:34:01.048Z,1007.3
2022-09-15T08:38:53.646Z,1007.37
2022-09-15T08:43:46.088Z,1007.41
2022-09-15T08:48:38.571Z,1007.44
2022-09-15T08:53:26.279Z,1007.41
2022-09-15T08:58:18.915Z,1007.36
2022-09-15T09:03:12.516Z,1007.41
2022-09-15T09:08:00.221Z,1007.43
2022-09-15T09:12:52.779Z,1007.39
2022-09-15T09:17:46.627Z,1007.41
2022-09-15T09:22:39.495Z,1007.43
2022-09-15T09:27:32.216Z,1007.41
2022-09-15T09:32:25.087Z,1007.45
2022-09-15T09:37:17.678Z,1007.38
2022-09-15T09:42:10.442Z,1007.36
2022-09-15T09:47:03.344Z,1007.39
2022-09-15T09:51:55.982Z,1007.42
2022-09-15T09:56:48.944Z,1007.42
2022-09-15T10:01:41.868Z,1007.48
2022-09-15T10:06:34.619Z,1007.4
2022-09-15T10:11:27.217Z,1007.38
2022-09-15T10:16:20.012Z,1007.34
2022-09-15T10:21:12.662Z,1007.28
2022-09-15T10:26:05.524Z,1007.23
2022-09-15T10:30:58.258Z,1007.19
2022-09-15T10:35:51.187Z,1007.18
2022-09-15T10:40:43.891Z,1007.17
2022-09-15T10:45:36.110Z,1007.19
2022-09-15T10:50:28.445Z,1007.2
2022-09-15T10:55:32.011Z,1007.24
2022-09-15T11:00:13.367Z,1007.2
2022-09-15T11:05:06.135Z,1007.22
2022-09-15T11:09:58.835Z,1007.22
2022-09-15T11:14:51.347Z,1007.25
2022-09-15T11:19:43.962Z,1007.21
2022-09-15T11:24:36.746Z,1007.24
2022-09-15T11:29:29.212Z,1007.22
2022-09-15T11:34:21.769Z,1007.19
2022-09-15T11:39:13.962Z,1007.26
2022-09-15T11:44:06.653Z,1007.36
2022-09-15T11:48:59.355Z,1007.37
2022-09-15T11:53:51.991Z,1007.33
2022-09-15T11:58:44.514Z,1007.29
2022-09-15T12:03:37.025Z,1007.29
2022-09-15T12:08:29.877Z,1007.24
2022-09-15T12:13:22.763Z,1007.2
2022-09-15T12:18:34.787Z,1007.22
2022-09-15T12:23:08.027Z,1007.23
2022-09-15T12:28:00.717Z,1007.3
2022-09-15T12:32:53.399Z,1007.28
2022-09-15T12:37:46.194Z,1007.29
2022-09-15T12:42:38.818Z,1007.3
2022-09-15T12:47:31.783Z,1007.3
2022-09-15T12:52:24.292Z,1007.41
2022-09-15T12:57:16.963Z,1007.42
2022-09-15T13:02:09.841Z,1007.43
2022-09-15T13:07:02.214Z,1007.53
2022-09-15T13:11:54.974Z,1007.55
2022-09-15T13:16:47.774Z,1007.57
2022-09-15T13:21:40.548Z,1007.56
2022-09-15T13:26:33.256Z,1007.61
2022-09-15T13:31:26.000Z,1007.66
2022-09-15T13:36:18.578Z,1007.61
2022-09-15T13:41:11.029Z,1007.57
2022-09-15T13:46:03.598Z,1007.46
2022-09-15T13:50:56.461Z,1007.42
2022-09-15T13:55:49.117Z,1007.38
2022-09-15T14:00:41.616Z,1007.35
2022-09-15T14:05:34.269Z,1007.34
2022-09-15T14:10:27.082Z,1007.36
2022-09-15T14:15:19.764Z,1007.31
2022-09-15T14:20:12.400Z,1007.16
2022-09-15T14:25:04.839Z,1007.17
2022-09-15T14:29:57.501Z,1007.17
2022-09-15T14:34:50.285Z,1007.15
2022-09-15T14:39:42.780Z,1007.19
2022-09-15T14:49:28.152Z,1007.1
2022-09-15T14:54:20.689Z,1007.03
2022-09-15T14:59:13.434Z,1007.1
2022-09-15T15:04:06.128Z,1007.13
2022-09-15T15:08:58.852Z,1007.12
2022-09-15T15:13:51.836Z,1007.12
2022-09-15T15:18:44.233Z,1007.23
2022-09-15T15:23:37.039Z,1007.18
2022-09-15T15:28:29.822Z,1007.19
2022-09-15T15:33:22.763Z,1007.18
2022-09-15T15:38:15.418Z,1007.11
2022-09-15T15:43:08.153Z,1007.22
2022-09-15T15:48:00.805Z,1007.21
2022-09-15T15:52:53.577Z,1007.24
2022-09-15T15:57:46.306Z,1007.19
2022-09-15T16:02:39.065Z,1007.21
2022-09-15T16:07:33.381Z,1007.21
2022-09-15T16:12:24.297Z,1007.22
2022-09-15T16:17:16.979Z,1007.25
2022-09-15T16:22:09.558Z,1007.27
2022-09-15T16:27:02.124Z,1007.3
2022-09-15T16:31:55.133Z,1007.36
2022-09-15T16:36:47.448Z,1007.47
2022-09-15T16:41:40.332Z,1007.48
2022-09-15T16:46:33.039Z,1007.45
2022-09-15T16:51:29.672Z,1007.49
2022-09-15T16:56:18.042Z,1007.48
2022-09-15T17:01:10.965Z,1007.49
2022-09-15T17:06:03.468Z,1007.41
2022-09-15T17:10:56.151Z,1007.48
2022-09-15T17:15:48.285Z,1007.55
2022-09-15T17:20:41.133Z,1007.51
2022-09-15T17:25:33.914Z,1007.61
2022-09-15T17:30:26.661Z,1007.6
2022-09-15T17:35:19.315Z,1007.63
2022-09-15T17:40:06.158Z,1007.66
2022-09-15T17:44:59.532Z,1007.66
2022-09-15T17:49:53.382Z,1007.67
2022-09-15T17:54:46.001Z,1007.66
2022-09-15T17:59:38.259Z,1007.63
2022-09-15T18:04:30.953Z,1007.64
2022-09-15T18:09:23.295Z,1007.63
2022-09-15T18:14:16.026Z,1007.72
2022-09-15T18:19:08.617Z,1007.72
2022-09-15T18:24:01.396Z,1007.73
2022-09-15T18:28:54.366Z,1007.81
2022-09-15T18:33:46.803Z,1007.86
2022-09-15T18:38:40.536Z,1007.85
2022-09-15T18:43:32.946Z,1007.92
2022-09-15T18:48:25.741Z,1007.95
2022-09-15T18:53:18.621Z,1008
2022-09-15T18:58:10.849Z,1008.05
2022-09-15T19:03:03.240Z,1008.16
2022-09-15T19:07:56.157Z,1008.17
2022-09-15T19:12:48.711Z,1008.26
2022-09-15T19:17:41.259Z,1008.26
2022-09-15T19:22:33.605Z,1008.28
2022-09-15T19:27:26.331Z,1008.33
2022-09-15T19:32:19.043Z,1008.31
2022-09-15T19:37:15.271Z,1008.29
2022-09-15T19:42:04.164Z,1008.29
2022-09-15T19:46:56.821Z,1008.34
2022-09-15T19:51:44.526Z,1008.33
2022-09-15T19:56:37.028Z,1008.32
2022-09-15T20:01:30.742Z,1008.32
2022-09-15T20:06:23.468Z,1008.41
2022-09-15T20:11:16.070Z,1008.43
2022-09-15T20:16:08.816Z,1008.44
2022-09-15T20:21:01.422Z,1008.5
2022-09-15T20:25:54.242Z,1008.55
2022-09-15T20:30:46.913Z,1008.61
2022-09-15T20:35:39.661Z,1008.64
2022-09-15T20:40:32.447Z,1008.66
2022-09-15T20:45:25.153Z,1008.61
2022-09-15T20:50:17.838Z,1008.7
2022-09-15T20:55:10.554Z,1008.69
2022-09-15T21:00:03.464Z,1008.77
2022-09-15T21:04:56.205Z,1008.77
2022-09-15T21:09:48.635Z,1008.79
2022-09-15T21:14:41.398Z,1008.85
2022-09-15T21:19:34.117Z,1008.93
2022-09-15T21:24:26.692Z,1008.98
2022-09-15T21:29:19.165Z,1008.98
2022-09-15T21:34:11.909Z,1008.98
2022-09-15T21:39:04.458Z,1009.07
2022-09-15T21:43:57.102Z,1009.05
2022-09-15T21:48:49.955Z,1009.11
2022-09-15T21:53:42.629Z,1009.08
2022-09-15T21:58:37.903Z,1009.08
2022-09-15T22:03:27.782Z,1009.16
2022-09-15T22:08:20.490Z,1009.12
2022-09-15T22:13:13.024Z,1009.14
2022-09-15T22:18:05.609Z,1009.2
2022-09-15T22:22:58.337Z,1009.19
2022-09-15T22:27:50.949Z,1009.15
2022-09-15T22:32:43.536Z,1009.13
2022-09-15T22:37:36.151Z,1009.23
2022-09-15T22:42:28.936Z,1009.23
2022-09-15T22:47:21.517Z,1009.24
2022-09-15T22:52:14.103Z,1009.2
2022-09-15T22:57:06.784Z,1009.2
2022-09-15T23:01:59.583Z,1009.22
2022-09-15T23:06:52.050Z,1009.23
2022-09-15T23:11:44.925Z,1009.18
2022-09-15T23:16:37.430Z,1009.21
2022-09-15T23:21:30.164Z,1009.23
2022-09-15T23:26:22.822Z,1009.19
2022-09-15T23:31:15.423Z,1009.13
2022-09-15T23:36:07.938Z,1009.16
2022-09-15T23:41:00.610Z,1009.12
2022-09-15T23:45:53.285Z,1009.11
2022-09-15T23:50:45.888Z,1009.1
2022-09-15T23:55:38.497Z,1009.17
